createdAt,value
2023-01-15T00:03:02.833Z,13.20
2023-01-15T00:08:04.956Z,13.20
2023-01-15T00:13:06.882Z,13.30
2023-01-15T00:18:08.707Z,13.30
2023-01-15T00:23:30.534Z,13.30
2023-01-15T00:28:32.349Z,13.20
2023-01-15T00:33:34.188Z,13.20
2023-01-15T00:38:36.097Z,13.20
2023-01-15T00:43:37.953Z,13.20
2023-01-15T00:48:40.607Z,13.10
2023-01-15T00:53:42.491Z,13.10
2023-01-15T00:58:46.297Z,13.20
2023-01-15T01:03:50.173Z,13.20
2023-01-15T01:08:52.039Z,13.30
2023-01-15T01:13:55.362Z,13.30
2023-01-15T01:18:58.602Z,13.30
2023-01-15T01:24:01.180Z,13.30
2023-01-15T01:29:03.944Z,13.40
2023-01-15T01:34:05.762Z,13.40
2023-01-15T01:39:10.719Z,13.40
2023-01-15T01:44:37.326Z,13.40
2023-01-15T01:49:40.571Z,13.40
2023-01-15T01:54:44.585Z,13.40
2023-01-15T01:59:47.913Z,13.50
2023-01-15T02:04:52.108Z,13.50
2023-01-15T02:09:54.026Z,13.50
2023-01-15T02:15:19.079Z,13.50
2023-01-15T02:20:36.571Z,13.50
2023-01-15T02:25:49.890Z,13.50
2023-01-15T02:31:00.082Z,13.60
2023-01-15T02:36:06.786Z,13.60
2023-01-15T02:41:16.410Z,13.60
2023-01-15T02:46:22.592Z,13.70
2023-01-15T02:51:36.221Z,13.70
2023-01-15T02:56:40.998Z,13.70
2023-01-15T03:01:51.428Z,13.70
2023-01-15T03:07:06.441Z,13.60
2023-01-15T03:12:17.978Z,13.50
2023-01-15T03:17:49.979Z,13.50
2023-01-15T03:22:59.374Z,13.50
2023-01-15T03:28:04.166Z,13.50
2023-01-15T03:33:11.428Z,13.40
2023-01-15T03:38:17.854Z,13.20
2023-01-15T03:43:42.027Z,13.10
2023-01-15T03:49:02.869Z,13.00
2023-01-15T03:54:12.512Z,12.90
2023-01-15T03:59:23.079Z,13.00
2023-01-15T04:04:33.677Z,13.00
2023-01-15T04:09:39.751Z,13.00
2023-01-15T04:14:44.656Z,13.00
2023-01-15T04:19:51.936Z,12.90
2023-01-15T04:24:55.162Z,12.90
2023-01-15T04:29:57.175Z,12.90
2023-01-15T04:34:58.966Z,12.80
2023-01-15T04:40:00.750Z,12.70
2023-01-15T04:45:02.598Z,12.60
2023-01-15T04:50:04.577Z,12.60
2023-01-15T04:55:06.597Z,12.50
2023-01-15T05:00:09.262Z,12.50
2023-01-15T05:05:11.113Z,12.40
2023-01-15T05:10:12.924Z,12.40
2023-01-15T05:15:14.768Z,12.40
2023-01-15T05:20:16.716Z,12.40
2023-01-15T05:25:18.563Z,12.40
2023-01-15T05:30:20.414Z,12.40
2023-01-15T05:35:22.193Z,12.40
2023-01-15T05:40:24.021Z,12.40
2023-01-15T05:45:25.860Z,12.40
2023-01-15T05:50:29.012Z,12.20
2023-01-15T05:55:30.921Z,12.20
2023-01-15T06:00:32.791Z,12.20
2023-01-15T06:05:34.639Z,12.20
2023-01-15T06:10:36.516Z,12.10
2023-01-15T06:15:38.629Z,12.10
2023-01-15T06:20:42.996Z,12.20
2023-01-15T06:25:45.098Z,12.20
2023-01-15T06:30:47.021Z,12.40
2023-01-15T06:35:48.958Z,12.50
2023-01-15T06:40:50.766Z,12.70
2023-01-15T06:46:11.687Z,12.80
2023-01-15T06:51:15.670Z,12.80
2023-01-15T06:56:17.643Z,12.80
2023-01-15T07:01:19.539Z,12.90
2023-01-15T07:06:21.462Z,12.90
2023-01-15T07:11:23.817Z,12.90
2023-01-15T07:16:28.434Z,12.90
2023-01-15T07:21:30.506Z,13.00
2023-01-15T07:26:32.434Z,12.90
2023-01-15T07:31:36.767Z,12.80
2023-01-15T07:36:38.871Z,12.80
2023-01-15T07:41:59.814Z,12.80
2023-01-15T07:47:21.283Z,12.80
2023-01-15T07:52:23.305Z,12.70
2023-01-15T07:57:25.337Z,12.60
2023-01-15T08:02:27.448Z,12.60
2023-01-15T08:07:29.380Z,12.70
2023-01-15T08:12:49.973Z,12.70
2023-01-15T08:17:52.693Z,12.80
2023-01-15T08:22:54.854Z,12.80
2023-01-15T08:28:02.198Z,12.80
2023-01-15T08:33:04.246Z,12.80
2023-01-15T08:38:07.523Z,12.60
2023-01-15T08:43:09.459Z,12.70
2023-01-15T08:48:11.325Z,12.80
2023-01-15T08:53:13.406Z,12.80
2023-01-15T08:58:15.772Z,12.90
2023-01-15T09:03:17.678Z,13.00
2023-01-15T09:08:20.402Z,13.00
2023-01-15T09:13:22.510Z,13.00
2023-01-15T09:18:24.572Z,12.90
2023-01-15T09:23:26.487Z,12.90
2023-01-15T09:28:29.448Z,12.80
2023-01-15T09:33:34.568Z,12.80
2023-01-15T09:38:36.503Z,12.70
2023-01-15T09:43:59.182Z,12.60
2023-01-15T09:49:23.948Z,12.40
2023-01-15T09:54:53.758Z,12.50
2023-01-15T10:00:28.515Z,12.30
2023-01-15T10:05:55.730Z,12.20
2023-01-15T10:11:04.549Z,12.00
2023-01-15T10:16:15.968Z,11.90
2023-01-15T10:21:51.890Z,11.80
2023-01-15T10:26:59.230Z,11.70
2023-01-15T10:32:13.859Z,11.60
2023-01-15T10:38:06.552Z,11.60
2023-01-15T10:44:31.583Z,11.60
2023-01-15T10:49:39.436Z,11.60
2023-01-15T10:54:48.210Z,11.50
2023-01-15T11:50:54.779Z,9.00
2023-01-15T11:56:02.763Z,8.80
2023-01-15T12:01:04.856Z,8.70
2023-01-15T12:06:14.948Z,8.60
2023-01-15T12:11:27.348Z,8.50
2023-01-15T12:17:19.458Z,8.40
2023-01-15T12:22:30.067Z,8.30
2023-01-15T12:27:52.248Z,8.20
2023-01-15T12:33:14.134Z,8.10
2023-01-15T12:38:27.013Z,8.00
2023-01-15T12:44:07.901Z,7.90
2023-01-15T12:49:15.045Z,7.90
2023-01-15T12:54:24.111Z,7.90
2023-01-15T12:59:30.328Z,7.80
2023-01-15T13:04:46.443Z,7.70
2023-01-15T13:09:48.192Z,7.70
2023-01-15T13:14:52.332Z,7.70
2023-01-15T13:20:12.536Z,7.60
2023-01-15T13:25:52.697Z,7.70
2023-01-15T13:31:19.915Z,7.70
2023-01-15T13:36:42.801Z,7.60
2023-01-15T13:42:11.026Z,7.50
2023-01-15T13:47:21.029Z,7.40
2023-01-15T13:52:26.601Z,7.50
2023-01-15T13:57:37.204Z,7.50
2023-01-15T14:02:41.023Z,7.50
2023-01-15T14:07:42.912Z,7.60
2023-01-15T14:13:18.656Z,7.60
2023-01-15T14:18:26.627Z,7.70
2023-01-15T14:23:43.873Z,7.70
2023-01-15T14:29:07.393Z,7.70
2023-01-15T14:34:30.249Z,7.70
2023-01-15T14:39:48.851Z,7.70
2023-01-15T14:45:36.672Z,7.80
2023-01-15T14:50:40.971Z,7.80
2023-01-15T14:56:16.389Z,7.80
2023-01-15T15:01:27.632Z,7.80
2023-01-15T15:06:30.443Z,7.80
2023-01-15T15:12:06.543Z,7.80
2023-01-15T15:17:21.118Z,7.80
2023-01-15T15:22:26.612Z,7.80
2023-01-15T15:27:28.576Z,7.70
2023-01-15T15:32:30.738Z,7.90
2023-01-15T15:37:34.989Z,7.90
2023-01-15T15:43:00.622Z,8.00
2023-01-15T15:48:39.242Z,8.00
2023-01-15T15:53:41.202Z,7.90
2023-01-15T15:58:43.705Z,7.80
2023-01-15T16:03:48.080Z,7.90
2023-01-15T16:09:01.614Z,7.90
2023-01-15T16:14:12.540Z,7.80
2023-01-15T16:19:19.542Z,7.80
2023-01-15T16:24:29.456Z,7.80
2023-01-15T16:29:33.571Z,7.70
2023-01-15T16:34:35.936Z,7.70
2023-01-15T16:39:45.009Z,7.70
2023-01-15T16:44:54.066Z,7.70
2023-01-15T16:50:23.822Z,7.70
2023-01-15T16:55:34.761Z,7.70
2023-01-15T17:00:36.954Z,7.60
2023-01-15T17:05:39.208Z,7.60
2023-01-15T17:10:52.835Z,7.60
2023-01-15T17:16:22.336Z,7.60
2023-01-15T17:21:28.612Z,7.60
2023-01-15T17:26:30.566Z,7.50
2023-01-15T17:31:34.244Z,7.50
2023-01-15T17:36:36.145Z,7.40
2023-01-15T17:41:38.092Z,7.30
2023-01-15T17:46:40.028Z,7.30
2023-01-15T17:51:42.652Z,7.20
2023-01-15T17:57:02.904Z,7.20
2023-01-15T18:02:29.453Z,7.30
2023-01-15T18:07:35.964Z,7.20
2023-01-15T18:12:37.833Z,7.10
2023-01-15T18:17:39.653Z,7.00
2023-01-15T18:22:41.560Z,7.10
2023-01-15T18:27:43.577Z,7.10
2023-01-15T18:32:46.006Z,7.00
2023-01-15T18:37:47.885Z,7.00
2023-01-15T18:43:08.154Z,7.00
2023-01-15T18:48:10.320Z,7.00
2023-01-15T18:53:13.196Z,7.10
2023-01-15T18:58:15.248Z,7.10
2023-01-15T19:03:17.095Z,7.20
2023-01-15T19:08:19.628Z,7.20
2023-01-15T19:13:21.444Z,7.20
2023-01-15T19:18:41.686Z,7.30
2023-01-15T19:23:43.577Z,7.30
2023-01-15T19:28:47.528Z,7.30
2023-01-15T19:33:49.643Z,7.40
2023-01-15T19:38:51.541Z,7.40
2023-01-15T19:44:11.839Z,7.30
2023-01-15T19:49:37.247Z,7.30
2023-01-15T19:54:57.397Z,7.10
2023-01-15T19:59:59.253Z,7.10
2023-01-15T20:05:01.045Z,7.00
2023-01-15T20:10:03.144Z,7.00
2023-01-15T20:15:05.516Z,7.00
2023-01-15T20:20:08.220Z,7.00
2023-01-15T20:25:10.560Z,7.00
2023-01-15T20:30:14.858Z,7.00
2023-01-15T20:35:23.313Z,7.00
2023-01-15T20:40:25.925Z,7.00
2023-01-15T20:45:27.985Z,7.10
2023-01-15T20:50:36.475Z,7.20
2023-01-15T20:55:54.759Z,7.20
2023-01-15T21:01:03.942Z,7.30
2023-01-15T21:06:07.140Z,7.30
2023-01-15T21:11:08.935Z,7.30
2023-01-15T21:16:17.332Z,7.30
2023-01-15T21:21:26.543Z,7.20
2023-01-15T21:33:21.200Z,7.20
2023-01-15T21:45:25.487Z,7.10
2023-01-15T21:50:28.568Z,7.00
2023-01-15T21:55:31.273Z,7.00
2023-01-15T22:00:34.211Z,6.90
2023-01-15T22:05:37.638Z,6.90
2023-01-15T22:10:40.843Z,6.80
2023-01-15T22:15:55.659Z,6.70
2023-01-15T22:21:00.832Z,6.80
2023-01-15T22:26:09.488Z,6.80
2023-01-15T22:31:35.003Z,6.90
2023-01-15T22:36:38.265Z,6.90
2023-01-15T22:41:59.540Z,6.90
2023-01-15T22:47:12.306Z,7.00
2023-01-15T22:52:15.455Z,7.10
2023-01-15T22:57:21.313Z,7.20
2023-01-15T23:02:43.042Z,7.20
2023-01-15T23:08:02.610Z,7.20
2023-01-15T23:13:06.190Z,7.10
2023-01-15T23:18:15.546Z,7.10
2023-01-15T23:23:22.243Z,7.20
2023-01-15T23:28:29.313Z,7.20
2023-01-15T23:33:33.146Z,7.30
2023-01-15T23:50:09.958Z,7.30
2023-01-15T23:55:15.026Z,7.30
